createdAt,value
2018-06-28T00:01:00.060Z,16.16
2018-06-28T00:03:27.010Z,16.03
2018-06-28T00:05:53.978Z,16.05
2018-06-28T00:08:20.948Z,16.11
2018-06-28T00:10:47.875Z,16.26
2018-06-28T00:13:15.870Z,16.33
2018-06-28T00:15:42.844Z,16.72
2018-06-28T00:18:09.802Z,16.80
2018-06-28T00:20:36.726Z,17.01
2018-06-28T00:23:03.654Z,17.01
2018-06-28T00:25:30.614Z,17.11
2018-06-28T00:27:57.509Z,17.11
2018-06-28T00:30:24.469Z,17.06
2018-06-28T00:32:53.323Z,16.92
2018-06-28T00:35:20.235Z,16.80
2018-06-28T00:37:47.258Z,16.75
2018-06-28T00:40:15.683Z,16.67
2018-06-28T00:42:43.691Z,16.71
2018-06-28T00:45:11.255Z,16.59
2018-06-28T00:47:38.170Z,16.53
2018-06-28T00:50:05.230Z,16.40
2018-06-28T00:52:32.193Z,16.44
2018-06-28T00:54:59.162Z,16.32
2018-06-28T00:57:26.094Z,16.31
2018-06-28T00:59:53.083Z,16.27
2018-06-28T01:02:20.031Z,16.23
2018-06-28T01:04:47.011Z,16.11
2018-06-28T01:07:13.902Z,15.99
2018-06-28T01:09:41.714Z,15.80
2018-06-28T01:12:08.670Z,15.47
2018-06-28T01:14:35.631Z,15.34
2018-06-28T01:17:02.599Z,15.29
2018-06-28T01:19:29.534Z,15.15
2018-06-28T01:21:56.499Z,15.15
2018-06-28T01:24:23.465Z,15.02
2018-06-28T01:26:50.423Z,14.81
2018-06-28T01:29:17.391Z,14.81
2018-06-28T01:31:44.347Z,14.93
2018-06-28T01:34:11.302Z,14.76
2018-06-28T01:36:38.238Z,14.51
2018-06-28T01:39:08.119Z,14.44
2018-06-28T01:41:47.318Z,14.50
2018-06-28T01:44:15.197Z,14.36
2018-06-28T01:46:42.255Z,14.29
2018-06-28T01:49:09.110Z,14.22
2018-06-28T01:51:36.687Z,14.18
2018-06-28T01:54:03.654Z,14.07
2018-06-28T01:56:30.595Z,13.98
2018-06-28T01:58:59.222Z,13.85
2018-06-28T02:01:26.155Z,13.84
2018-06-28T02:03:56.999Z,13.91
2018-06-28T02:06:25.758Z,14.07
2018-06-28T02:08:52.680Z,14.01
2018-06-28T02:11:20.638Z,13.90
2018-06-28T02:13:49.268Z,13.82
2018-06-28T02:16:17.251Z,13.79
2018-06-28T02:18:44.696Z,13.76
2018-06-28T02:21:12.674Z,13.58
2018-06-28T02:23:41.225Z,13.47
2018-06-28T02:26:08.738Z,13.38
2018-06-28T02:28:36.214Z,13.35
2018-06-28T02:31:06.185Z,13.43
2018-06-28T02:33:33.048Z,13.40
2018-06-28T02:35:59.934Z,13.42
2018-06-28T02:38:28.750Z,13.40
2018-06-28T02:40:57.263Z,13.35
2018-06-28T02:43:24.213Z,13.38
2018-06-28T02:45:53.729Z,13.17
2018-06-28T02:48:21.722Z,13.03
2018-06-28T02:50:48.707Z,12.88
2018-06-28T02:53:15.626Z,12.96
2018-06-28T02:55:42.535Z,12.82
2018-06-28T02:58:10.442Z,12.76
2018-06-28T03:00:38.236Z,12.76
2018-06-28T03:03:05.179Z,12.78
2018-06-28T03:05:32.719Z,12.76
2018-06-28T03:07:59.606Z,12.86
2018-06-28T03:10:26.580Z,12.89
2018-06-28T03:12:55.275Z,12.85
2018-06-28T03:15:22.234Z,12.96
2018-06-28T03:17:49.166Z,12.93
2018-06-28T03:20:16.746Z,12.82
2018-06-28T03:22:44.750Z,12.75
2018-06-28T03:25:11.698Z,12.76
2018-06-28T03:27:39.250Z,12.80
2018-06-28T03:30:06.401Z,12.82
2018-06-28T03:32:36.353Z,12.79
2018-06-28T03:35:08.330Z,12.94
2018-06-28T03:37:35.826Z,12.98
2018-06-28T03:40:04.740Z,13.14
2018-06-28T03:42:32.281Z,13.26
2018-06-28T03:44:59.227Z,13.53
2018-06-28T03:47:26.803Z,13.79
2018-06-28T03:49:53.762Z,14.37
2018-06-28T03:52:21.256Z,14.59
2018-06-28T03:54:49.291Z,14.90
2018-06-28T03:57:17.827Z,15.32
2018-06-28T03:59:45.830Z,16.08
2018-06-28T04:02:12.734Z,16.57
2018-06-28T04:04:40.319Z,16.95
2018-06-28T04:07:11.339Z,17.14
2018-06-28T04:09:38.244Z,17.29
2018-06-28T04:12:05.226Z,17.20
2018-06-28T04:14:32.786Z,17.09
2018-06-28T04:17:00.333Z,17.20
2018-06-28T04:19:44.712Z,17.53
2018-06-28T04:22:21.272Z,17.62
2018-06-28T04:24:48.250Z,18.07
2018-06-28T04:27:16.842Z,17.74
2018-06-28T04:29:43.799Z,18.10
2018-06-28T04:32:12.807Z,18.67
2018-06-28T04:34:40.278Z,18.77
2018-06-28T04:37:07.238Z,19.05
2018-06-28T04:39:35.828Z,19.24
2018-06-28T04:42:02.774Z,19.56
2018-06-28T04:44:29.703Z,19.40
2018-06-28T04:46:57.321Z,19.39
2018-06-28T04:49:25.305Z,19.86
2018-06-28T04:51:52.914Z,20.69
2018-06-28T04:54:19.811Z,21.16
2018-06-28T04:56:46.761Z,20.88
2018-06-28T04:59:14.776Z,20.61
2018-06-28T05:01:46.111Z,21.12
2018-06-28T05:04:13.779Z,20.58
2018-06-28T05:06:41.791Z,20.13
2018-06-28T05:09:10.222Z,19.53
2018-06-28T05:11:37.875Z,19.21
2018-06-28T05:14:07.274Z,18.67
2018-06-28T05:16:34.218Z,18.57
2018-06-28T05:19:01.184Z,18.50
2018-06-28T05:21:28.134Z,18.45
2018-06-28T05:23:56.114Z,18.36
2018-06-28T05:26:23.467Z,18.33
2018-06-28T05:28:51.334Z,18.29
2018-06-28T05:31:18.830Z,18.20
2018-06-28T05:33:45.796Z,18.23
2018-06-28T05:36:12.730Z,18.44
2018-06-28T05:38:40.278Z,18.38
2018-06-28T05:41:07.291Z,18.39
2018-06-28T05:43:34.278Z,18.48
2018-06-28T05:46:01.884Z,18.71
2018-06-28T05:48:28.719Z,19.07
2018-06-28T05:50:56.451Z,19.31
2018-06-28T05:53:23.462Z,19.47
2018-06-28T05:55:50.311Z,19.40
2018-06-28T05:58:18.791Z,19.26
2018-06-28T06:00:45.699Z,19.63
2018-06-28T06:03:13.710Z,19.59
2018-06-28T06:05:42.499Z,19.56
2018-06-28T06:08:09.394Z,19.32
2018-06-28T06:10:36.258Z,19.75
2018-06-28T06:13:03.286Z,19.92
2018-06-28T06:15:30.851Z,20.03
2018-06-28T06:17:58.360Z,19.67
2018-06-28T06:20:26.931Z,19.86
2018-06-28T06:22:54.351Z,20.03
2018-06-28T06:25:21.326Z,20.37
2018-06-28T06:27:48.242Z,20.28
2018-06-28T06:30:15.886Z,20.14
2018-06-28T06:32:43.419Z,20.41
2018-06-28T06:35:10.916Z,20.54
2018-06-28T06:37:37.867Z,20.67
2018-06-28T06:40:05.848Z,20.80
2018-06-28T06:42:37.390Z,20.79
2018-06-28T06:45:06.070Z,20.63
2018-06-28T06:47:33.866Z,20.66
2018-06-28T06:50:01.430Z,20.92
2018-06-28T06:52:28.886Z,21.24
2018-06-28T06:54:55.860Z,21.37
2018-06-28T06:57:24.451Z,21.28
2018-06-28T06:59:52.445Z,21.43
2018-06-28T07:02:19.410Z,21.70
2018-06-28T07:04:46.323Z,21.96
2018-06-28T07:07:14.827Z,21.69
2018-06-28T07:09:41.806Z,22.12
2018-06-28T07:12:09.362Z,22.11
2018-06-28T07:14:36.326Z,22.13
2018-06-28T07:17:04.339Z,22.14
2018-06-28T07:19:32.303Z,22.22
2018-06-28T07:21:59.278Z,22.61
2018-06-28T07:24:26.927Z,22.53
2018-06-28T07:26:53.839Z,22.31
2018-06-28T07:29:20.799Z,22.53
2018-06-28T07:31:48.411Z,22.79
2018-06-28T07:34:15.472Z,22.09
2018-06-28T07:36:42.398Z,22.37
2018-06-28T07:39:11.271Z,22.30
2018-06-28T07:41:38.335Z,22.62
2018-06-28T07:44:06.070Z,22.54
2018-06-28T07:46:34.043Z,22.90
2018-06-28T07:49:01.741Z,22.60
2018-06-28T07:51:28.678Z,22.77
2018-06-28T07:53:55.622Z,22.89
2018-06-28T07:56:23.410Z,23.08
2018-06-28T07:58:50.334Z,23.14
2018-06-28T08:01:18.967Z,23.25
2018-06-28T08:03:45.996Z,23.50
2018-06-28T08:06:12.987Z,23.76
2018-06-28T08:08:39.973Z,23.61
2018-06-28T08:11:06.752Z,23.64
2018-06-28T08:13:33.618Z,23.58
2018-06-28T08:16:00.618Z,23.76
2018-06-28T08:18:27.575Z,24.31
2018-06-28T08:20:54.554Z,24.72
2018-06-28T08:23:24.559Z,25.16
2018-06-28T08:25:51.507Z,24.86
2018-06-28T08:28:21.831Z,24.73
2018-06-28T08:30:48.681Z,24.47
2018-06-28T08:33:16.446Z,24.43
2018-06-28T08:35:43.492Z,24.69
2018-06-28T08:38:11.012Z,24.47
2018-06-28T08:40:38.990Z,24.52
2018-06-28T08:43:06.186Z,24.71
2018-06-28T08:45:33.115Z,24.59
2018-06-28T08:48:00.991Z,24.88
2018-06-28T08:50:27.954Z,25.29
2018-06-28T08:52:56.468Z,25.43
2018-06-28T08:55:23.442Z,25.56
2018-06-28T08:57:50.417Z,25.88
2018-06-28T09:00:17.311Z,25.81
2018-06-28T09:02:44.293Z,25.96
2018-06-28T09:05:11.986Z,26.36
2018-06-28T09:07:38.898Z,26.09
2018-06-28T09:10:06.486Z,26.10
2018-06-28T09:12:33.402Z,26.08
2018-06-28T09:15:01.007Z,26.51
2018-06-28T09:17:28.587Z,26.69
2018-06-28T09:19:55.541Z,26.99
2018-06-28T09:22:22.482Z,27.05
2018-06-28T09:24:49.422Z,27.52
2018-06-28T09:27:16.398Z,26.53
2018-06-28T09:29:43.351Z,26.83
2018-06-28T09:32:10.318Z,27.18
2018-06-28T09:34:37.257Z,27.16
2018-06-28T09:37:04.398Z,27.61
2018-06-28T09:39:31.363Z,27.04
2018-06-28T09:41:58.350Z,26.16
2018-06-28T09:44:25.313Z,25.90
2018-06-28T09:46:52.258Z,26.11
2018-06-28T09:49:19.229Z,26.14
2018-06-28T09:51:46.175Z,26.18
2018-06-28T09:54:13.944Z,26.41
2018-06-28T09:56:40.922Z,26.12
2018-06-28T09:59:07.838Z,26.25
2018-06-28T10:01:34.834Z,26.36
2018-06-28T10:04:01.790Z,26.14
2018-06-28T10:06:28.738Z,25.81
2018-06-28T10:08:55.708Z,26.07
2018-06-28T10:11:23.227Z,25.68
2018-06-28T10:13:50.123Z,26.71
2018-06-28T10:16:17.131Z,26.52
2018-06-28T10:18:44.046Z,26.10
2018-06-28T10:21:11.001Z,26.34
2018-06-28T10:23:38.970Z,26.68
2018-06-28T10:26:05.942Z,26.75
2018-06-28T10:28:32.866Z,26.47
2018-06-28T10:30:59.858Z,26.56
2018-06-28T10:33:26.822Z,26.78
2018-06-28T10:35:53.769Z,26.53
2018-06-28T10:38:20.731Z,26.86
2018-06-28T10:40:47.699Z,27.10
2018-06-28T10:43:14.686Z,27.18
2018-06-28T10:45:41.610Z,27.09
2018-06-28T10:48:08.550Z,27.27
2018-06-28T10:50:35.513Z,26.98
2018-06-28T10:53:02.359Z,27.48
2018-06-28T10:55:29.225Z,27.31
2018-06-28T10:57:56.191Z,27.74
2018-06-28T11:00:23.147Z,28.15
2018-06-28T11:02:50.110Z,28.41
2018-06-28T11:05:17.014Z,28.51
2018-06-28T11:07:43.906Z,28.74
2018-06-28T11:10:10.870Z,28.60
2018-06-28T11:12:38.858Z,28.04
2018-06-28T11:15:05.802Z,28.98
2018-06-28T11:17:32.760Z,28.78
2018-06-28T11:20:00.637Z,28.63
2018-06-28T11:22:27.602Z,28.65
2018-06-28T11:24:55.646Z,28.24
2018-06-28T11:27:22.534Z,28.26
2018-06-28T11:29:49.582Z,27.75
2018-06-28T11:32:16.541Z,27.82
2018-06-28T11:34:44.010Z,27.53
2018-06-28T11:37:11.015Z,27.26
2018-06-28T11:39:37.963Z,27.22
2018-06-28T11:42:04.894Z,27.55
2018-06-28T11:44:31.948Z,27.74
2018-06-28T11:46:59.122Z,27.83
2018-06-28T11:49:26.054Z,27.64
2018-06-28T11:51:53.479Z,27.57
2018-06-28T11:54:20.415Z,26.94
2018-06-28T11:56:47.382Z,26.92
2018-06-28T11:59:14.282Z,27.04
2018-06-28T12:01:41.278Z,27.14
2018-06-28T12:04:09.055Z,27.55
2018-06-28T12:06:36.062Z,27.57
2018-06-28T12:09:06.392Z,27.62
2018-06-28T12:11:33.293Z,28.03
2018-06-28T12:14:00.254Z,27.10
2018-06-28T12:16:27.276Z,26.76
2018-06-28T12:18:54.352Z,26.79
2018-06-28T12:21:22.045Z,26.79
2018-06-28T12:23:49.010Z,27.38
2018-06-28T12:26:15.970Z,27.94
2018-06-28T12:31:12.446Z,28.25
2018-06-28T12:33:39.414Z,28.08
2018-06-28T12:36:06.366Z,28.14
2018-06-28T12:38:33.365Z,27.80
2018-06-28T12:41:00.286Z,27.12
2018-06-28T12:43:29.167Z,27.00
2018-06-28T12:45:56.955Z,26.47
2018-06-28T12:48:24.938Z,26.11
2018-06-28T12:50:52.625Z,25.86
2018-06-28T12:53:19.542Z,25.51
2018-06-28T12:56:14.466Z,25.47
2018-06-28T12:58:42.485Z,25.32
2018-06-28T13:01:09.435Z,25.21
2018-06-28T13:03:36.413Z,25.28
2018-06-28T13:06:03.633Z,25.10
2018-06-28T13:08:30.590Z,25.03
2018-06-28T13:10:57.590Z,24.94
2018-06-28T13:13:25.148Z,24.88
2018-06-28T13:15:52.598Z,24.80
2018-06-28T13:18:20.478Z,24.84
2018-06-28T13:20:49.871Z,24.90
2018-06-28T13:23:17.126Z,25.04
2018-06-28T13:25:44.630Z,24.94
2018-06-28T13:28:13.324Z,25.08
2018-06-28T13:30:39.956Z,25.13
2018-06-28T13:33:06.945Z,25.18
2018-06-28T13:35:33.959Z,25.24
2018-06-28T13:38:02.174Z,25.37
2018-06-28T13:40:29.276Z,25.71
2018-06-28T13:42:57.158Z,26.07
2018-06-28T13:45:25.211Z,26.51
2018-06-28T13:47:54.149Z,27.31
2018-06-28T13:50:21.074Z,27.66
2018-06-28T13:52:48.246Z,27.97
2018-06-28T13:55:17.647Z,27.93
2018-06-28T13:57:44.718Z,28.32
2018-06-28T14:00:11.580Z,28.82
2018-06-28T14:02:38.482Z,28.56
2018-06-28T14:05:06.569Z,28.63
2018-06-28T14:07:34.241Z,28.69
2018-06-28T14:10:02.240Z,28.61
2018-06-28T14:12:29.326Z,28.53
2018-06-28T14:14:56.331Z,28.76
2018-06-28T14:17:24.353Z,28.88
2018-06-28T14:19:51.464Z,29.21
2018-06-28T14:22:18.404Z,29.46
2018-06-28T14:24:45.302Z,30.72
2018-06-28T14:27:12.266Z,30.68
2018-06-28T14:29:39.248Z,30.01
2018-06-28T14:32:06.238Z,29.60
2018-06-28T14:34:33.240Z,29.16
2018-06-28T14:37:00.210Z,29.22
2018-06-28T14:39:27.152Z,29.04
2018-06-28T14:41:54.166Z,29.11
2018-06-28T14:44:21.134Z,29.60
2018-06-28T14:46:48.113Z,29.34
2018-06-28T14:49:15.098Z,29.31
2018-06-28T14:51:42.178Z,29.04
2018-06-28T14:54:09.107Z,28.88
2018-06-28T14:56:36.170Z,30.96
2018-06-28T14:59:03.122Z,31.14
2018-06-28T15:01:30.079Z,31.03
2018-06-28T15:03:58.062Z,32.32
2018-06-28T15:06:25.096Z,32.72
2018-06-28T15:08:52.074Z,32.17
2018-06-28T15:11:19.114Z,30.86
2018-06-28T15:13:46.631Z,29.77
2018-06-28T15:16:13.619Z,29.23
2018-06-28T15:18:40.623Z,28.82
2018-06-28T15:21:07.555Z,28.35
2018-06-28T15:23:34.485Z,28.57
2018-06-28T15:26:02.480Z,28.45
2018-06-28T15:28:29.483Z,28.58
2018-06-28T15:30:56.703Z,28.69
2018-06-28T15:33:24.807Z,28.61
2018-06-28T15:35:51.573Z,28.75
2018-06-28T15:38:18.589Z,28.92
2018-06-28T15:40:46.540Z,28.71
2018-06-28T15:43:13.490Z,28.62
2018-06-28T15:45:40.492Z,28.33
2018-06-28T15:48:07.395Z,28.54
2018-06-28T15:50:34.454Z,28.51
2018-06-28T15:53:01.427Z,28.53
2018-06-28T15:55:30.418Z,28.26
2018-06-28T15:57:59.220Z,28.72
2018-06-28T16:00:26.770Z,29.13
2018-06-28T16:02:53.806Z,29.22
2018-06-28T16:05:20.695Z,29.61
2018-06-28T16:07:47.666Z,29.21
2018-06-28T16:10:14.616Z,28.56
2018-06-28T16:12:41.611Z,28.37
2018-06-28T16:15:08.522Z,28.20
2018-06-28T16:17:38.854Z,28.11
2018-06-28T16:20:06.766Z,28.01
2018-06-28T16:22:33.762Z,27.83
2018-06-28T16:25:01.207Z,27.69
2018-06-28T16:27:28.762Z,27.64
2018-06-28T16:29:57.790Z,27.88
2018-06-28T16:32:24.726Z,30.59
2018-06-28T16:34:52.182Z,31.43
2018-06-28T16:37:19.114Z,32.40
2018-06-28T16:39:46.090Z,33.45
2018-06-28T16:42:13.046Z,33.16
2018-06-28T16:44:42.781Z,32.99
2018-06-28T16:47:09.702Z,33.30
2018-06-28T16:49:36.687Z,33.13
2018-06-28T16:52:03.640Z,31.38
2018-06-28T16:54:31.629Z,29.82
2018-06-28T16:57:01.579Z,28.44
2018-06-28T16:59:31.487Z,28.20
2018-06-28T17:01:58.370Z,28.38
2018-06-28T17:04:25.336Z,27.83
2018-06-28T17:06:52.251Z,27.79
2018-06-28T17:09:19.170Z,27.71
2018-06-28T17:11:46.074Z,27.89
2018-06-28T17:14:13.080Z,28.11
2018-06-28T17:16:39.981Z,28.10
2018-06-28T17:19:07.910Z,28.05
2018-06-28T17:21:35.010Z,28.21
2018-06-28T17:24:01.954Z,28.38
2018-06-28T17:26:28.927Z,28.24
2018-06-28T17:28:58.874Z,27.90
2018-06-28T17:31:25.786Z,27.86
2018-06-28T17:33:52.894Z,27.70
2018-06-28T17:36:19.838Z,27.76
2018-06-28T17:38:46.799Z,27.50
2018-06-28T17:41:13.758Z,27.08
2018-06-28T17:43:40.698Z,27.19
2018-06-28T17:46:07.670Z,27.21
2018-06-28T17:48:34.610Z,27.23
2018-06-28T17:51:01.649Z,27.29
2018-06-28T17:53:28.505Z,27.59
2018-06-28T17:55:55.512Z,27.25
2018-06-28T17:58:22.462Z,27.61
2018-06-28T18:00:49.440Z,27.57
2018-06-28T18:03:16.361Z,27.55
2018-06-28T18:05:47.895Z,27.01
2018-06-28T18:08:15.829Z,26.96
2018-06-28T18:10:46.823Z,26.44
2018-06-28T18:13:17.849Z,25.78
2018-06-28T18:15:45.887Z,25.37
2018-06-28T18:18:14.959Z,25.20
2018-06-28T18:20:43.895Z,24.97
2018-06-28T18:23:17.007Z,24.66
2018-06-28T18:25:44.008Z,24.49
2018-06-28T18:28:13.814Z,24.38
2018-06-28T18:30:45.281Z,24.31
2018-06-28T18:33:25.837Z,24.23
2018-06-28T18:35:54.854Z,24.22
2018-06-28T18:38:23.946Z,24.31
2018-06-28T18:40:52.755Z,24.32
2018-06-28T18:43:25.848Z,23.69
2018-06-28T18:45:52.819Z,23.43
2018-06-28T18:48:22.738Z,23.48
2018-06-28T18:50:53.194Z,23.34
2018-06-28T18:53:26.285Z,23.31
2018-06-28T18:56:00.290Z,23.19
2018-06-28T18:58:27.813Z,23.06
2018-06-28T19:00:54.731Z,23.04
2018-06-28T19:03:21.702Z,22.87
2018-06-28T19:05:58.322Z,22.84
2018-06-28T19:08:28.323Z,22.70
2018-06-28T19:11:08.678Z,22.78
2018-06-28T19:13:43.200Z,22.65
2018-06-28T19:16:15.900Z,22.69
2018-06-28T19:18:42.934Z,22.62
2018-06-28T19:21:15.657Z,22.72
2018-06-28T19:23:47.351Z,22.69
2018-06-28T19:26:14.902Z,22.59
2018-06-28T19:28:42.870Z,22.71
2018-06-28T19:31:15.958Z,22.63
2018-06-28T19:33:46.053Z,22.63
2018-06-28T19:36:18.639Z,22.67
2018-06-28T19:38:52.142Z,22.62
2018-06-28T19:41:25.982Z,22.42
2018-06-28T19:43:59.078Z,22.40
2018-06-28T19:46:28.842Z,22.46
2018-06-28T19:48:56.332Z,22.45
2018-06-28T19:51:32.123Z,22.30
2018-06-28T19:54:02.130Z,22.27
2018-06-28T19:56:30.107Z,22.27
2018-06-28T19:59:03.274Z,22.29
2018-06-28T20:01:38.003Z,22.40
2018-06-28T20:04:11.845Z,22.42
2018-06-28T20:06:40.039Z,22.29
2018-06-28T20:09:08.246Z,22.31
2018-06-28T20:11:35.154Z,22.35
2018-06-28T20:14:08.867Z,22.25
2018-06-28T20:16:45.634Z,22.31
2018-06-28T20:19:19.158Z,22.17
2018-06-28T20:21:46.065Z,22.09
2018-06-28T20:24:13.010Z,22.13
2018-06-28T20:26:48.602Z,21.99
2018-06-28T20:29:21.262Z,21.88
2018-06-28T20:31:53.907Z,21.81
2018-06-28T20:34:21.325Z,21.87
2018-06-28T20:36:54.166Z,21.83
2018-06-28T20:39:24.170Z,21.82
2018-06-28T20:41:52.834Z,21.89
2018-06-28T20:44:22.371Z,21.80
2018-06-28T20:46:49.330Z,21.72
2018-06-28T20:49:16.313Z,21.52
2018-06-28T20:51:44.873Z,21.62
2018-06-28T20:54:12.908Z,21.52
2018-06-28T20:56:40.342Z,21.37
2018-06-28T20:59:13.227Z,21.27
2018-06-28T21:01:43.139Z,21.28
2018-06-28T21:04:13.396Z,21.78
2018-06-28T21:06:43.305Z,21.36
2018-06-28T21:09:11.338Z,21.27
2018-06-28T21:11:44.390Z,21.05
2018-06-28T21:14:12.386Z,21.07
2018-06-28T21:16:39.344Z,20.88
2018-06-28T21:19:06.270Z,20.87
2018-06-28T21:21:39.286Z,20.83
2018-06-28T21:24:06.246Z,20.88
2018-06-28T21:26:33.214Z,20.74
2018-06-28T21:29:00.175Z,20.50
2018-06-28T21:31:27.163Z,20.24
2018-06-28T21:33:54.094Z,20.16
2018-06-28T21:36:21.042Z,20.16
2018-06-28T21:38:47.994Z,20.07
2018-06-28T21:41:14.922Z,20.03
2018-06-28T21:43:42.962Z,19.99
2018-06-28T21:46:09.926Z,19.98
2018-06-28T21:48:36.834Z,20.11
2018-06-28T21:51:07.099Z,20.30
2018-06-28T21:53:40.246Z,20.37
2018-06-28T21:56:14.203Z,20.48
2018-06-28T21:58:41.158Z,20.56
2018-06-28T22:01:09.147Z,20.60
2018-06-28T22:06:25.007Z,20.50
2018-06-28T22:08:55.515Z,20.39
2018-06-28T22:11:22.464Z,20.31
2018-06-28T22:13:53.489Z,20.20
2018-06-28T22:16:20.378Z,20.16
2018-06-28T22:18:47.350Z,20.01
2018-06-28T22:21:14.899Z,20.06
2018-06-28T22:23:41.878Z,19.92
2018-06-28T22:26:09.058Z,19.74
2018-06-28T22:28:41.866Z,19.67
2018-06-28T22:31:12.779Z,19.63
2018-06-28T22:33:41.466Z,19.50
2018-06-28T22:36:09.978Z,19.46
2018-06-28T22:38:37.941Z,19.41
2018-06-28T22:41:05.360Z,19.41
2018-06-28T22:43:32.288Z,19.46
2018-06-28T22:46:04.557Z,19.59
2018-06-28T22:48:33.423Z,19.55
2018-06-28T22:51:03.490Z,19.51
2018-06-28T22:53:36.382Z,19.28
2018-06-28T22:56:03.350Z,19.28
2018-06-28T22:58:30.274Z,19.36
2018-06-28T23:00:57.323Z,19.44
2018-06-28T23:03:24.938Z,19.45
2018-06-28T23:08:33.699Z,19.48
2018-06-28T23:11:03.622Z,19.59
2018-06-28T23:13:34.689Z,19.48
2018-06-28T23:16:02.462Z,19.45
2018-06-28T23:18:35.367Z,19.34
2018-06-28T23:21:07.327Z,19.24
2018-06-28T23:23:37.254Z,19.16
2018-06-28T23:26:07.182Z,19.14
2018-06-28T23:28:34.127Z,19.11
2018-06-28T23:31:08.270Z,19.30
2018-06-28T23:33:41.361Z,19.31
2018-06-28T23:36:12.535Z,19.12
2018-06-28T23:38:41.423Z,19.04
2018-06-28T23:41:15.363Z,19.26
2018-06-28T23:43:49.890Z,19.17
2018-06-28T23:46:19.822Z,19.08
2018-06-28T23:48:52.818Z,19.15
2018-06-28T23:51:22.734Z,19.05
2018-06-28T23:53:52.674Z,18.88
2018-06-28T23:56:19.663Z,18.84
2018-06-28T23:58:47.508Z,18.88
